createdAt,value
2022-10-18T00:00:13.560Z,4.47
2022-10-18T00:02:41.310Z,3.70
2022-10-18T00:05:09.584Z,4.38
2022-10-18T00:07:37.218Z,4.35
2022-10-18T00:10:05.982Z,4.38
2022-10-18T00:12:35.463Z,4.05
2022-10-18T00:15:06.598Z,3.80
2022-10-18T00:17:35.341Z,3.53
2022-10-18T00:20:03.024Z,3.92
2022-10-18T00:22:30.908Z,3.17
2022-10-18T00:24:58.664Z,3.50
2022-10-18T00:27:26.317Z,3.38
2022-10-18T00:29:54.233Z,3.67
2022-10-18T00:32:23.117Z,3.10
2022-10-18T00:34:50.840Z,3.60
2022-10-18T00:37:18.868Z,3.83
2022-10-18T00:39:46.440Z,3.85
2022-10-18T00:42:17.345Z,3.72
2022-10-18T00:45:16.420Z,3.55
2022-10-18T00:47:49.829Z,3.70
2022-10-18T00:50:17.713Z,4.05
2022-10-18T00:52:50.093Z,3.88
2022-10-18T00:55:18.698Z,3.75
2022-10-18T00:57:47.151Z,3.97
2022-10-18T01:00:15.393Z,3.20
2022-10-18T01:02:45.804Z,3.38
2022-10-18T01:05:14.952Z,3.40
2022-10-18T01:08:08.506Z,3.60
2022-10-18T01:10:44.325Z,3.20
2022-10-18T01:13:27.124Z,3.63
2022-10-18T01:16:01.260Z,2.97
2022-10-18T01:18:36.421Z,3.38
2022-10-18T01:21:31.644Z,2.90
2022-10-18T01:24:16.532Z,3.20
2022-10-18T01:27:06.432Z,3.60
2022-10-18T01:29:44.604Z,3.70
2022-10-18T01:32:18.047Z,3.42
2022-10-18T01:34:48.528Z,2.80
2022-10-18T01:37:19.535Z,3.20
2022-10-18T01:39:48.846Z,3.20
2022-10-18T01:42:21.138Z,3.47
2022-10-18T01:44:51.600Z,3.15
2022-10-18T01:47:21.924Z,3.17
2022-10-18T01:49:49.526Z,3.22
2022-10-18T01:52:17.815Z,3.28
2022-10-18T01:54:49.946Z,2.97
2022-10-18T01:57:24.795Z,3.05
2022-10-18T01:59:59.118Z,3.33
2022-10-18T02:02:42.068Z,3.03
2022-10-18T02:05:18.829Z,3.20
2022-10-18T02:08:05.641Z,2.87
2022-10-18T02:10:45.852Z,3.07
2022-10-18T02:13:16.945Z,3.00
2022-10-18T02:15:48.535Z,2.85
2022-10-18T02:18:22.654Z,2.97
2022-10-18T02:20:52.195Z,2.83
2022-10-18T02:23:24.106Z,2.90
2022-10-18T02:25:52.818Z,2.85
2022-10-18T02:28:20.634Z,2.80
2022-10-18T02:30:54.439Z,3.30
2022-10-18T02:33:32.647Z,3.00
2022-10-18T02:36:05.371Z,3.22
2022-10-18T02:38:33.912Z,2.83
2022-10-18T02:41:01.632Z,2.95
2022-10-18T02:43:29.178Z,2.63
2022-10-18T02:45:56.877Z,2.85
2022-10-18T02:48:25.780Z,2.67
2022-10-18T02:50:53.360Z,3.17
2022-10-18T02:53:20.974Z,2.60
2022-10-18T02:55:48.575Z,3.20
2022-10-18T02:58:16.147Z,2.83
2022-10-18T03:00:43.733Z,3.07
2022-10-18T03:03:18.845Z,3.07
2022-10-18T03:05:50.183Z,2.87
2022-10-18T03:08:17.921Z,2.80
2022-10-18T03:10:45.564Z,2.87
2022-10-18T03:13:13.600Z,2.53
2022-10-18T03:15:42.124Z,2.37
2022-10-18T03:18:09.796Z,2.80
2022-10-18T03:20:37.395Z,2.70
2022-10-18T03:23:07.232Z,2.43
2022-10-18T03:25:35.431Z,2.63
2022-10-18T03:28:03.147Z,3.10
2022-10-18T03:30:30.769Z,3.20
2022-10-18T03:32:58.417Z,2.73
2022-10-18T03:35:26.050Z,2.60
2022-10-18T03:37:53.635Z,2.60
2022-10-18T03:40:22.640Z,2.57
2022-10-18T03:42:50.277Z,2.10
2022-10-18T03:45:17.867Z,2.50
2022-10-18T03:47:45.495Z,2.83
2022-10-18T03:50:13.511Z,2.50
2022-10-18T03:52:41.162Z,2.63
2022-10-18T03:55:09.103Z,2.60
2022-10-18T03:57:38.144Z,2.37
2022-10-18T04:00:06.834Z,2.27
2022-10-18T04:02:34.613Z,2.20
2022-10-18T04:05:02.341Z,2.47
2022-10-18T04:07:30.069Z,2.50
2022-10-18T04:09:57.681Z,2.60
2022-10-18T04:12:25.352Z,2.97
2022-10-18T04:14:55.742Z,2.30
2022-10-18T04:17:23.490Z,2.50
2022-10-18T04:19:51.082Z,2.30
2022-10-18T04:22:18.753Z,2.67
2022-10-18T04:24:46.370Z,2.20
2022-10-18T04:27:13.962Z,2.30
2022-10-18T04:29:41.665Z,3.20
2022-10-18T04:32:10.626Z,2.50
2022-10-18T04:34:38.251Z,2.50
2022-10-18T04:37:06.019Z,2.63
2022-10-18T04:39:33.756Z,2.70
2022-10-18T04:42:01.434Z,2.57
2022-10-18T04:44:29.043Z,2.83
2022-10-18T04:46:56.629Z,2.67
2022-10-18T04:49:25.552Z,2.83
2022-10-18T04:51:53.070Z,3.20
2022-10-18T04:54:21.922Z,2.67
2022-10-18T04:56:51.619Z,3.10
2022-10-18T04:59:19.207Z,3.77
2022-10-18T05:01:46.931Z,3.70
2022-10-18T05:04:14.838Z,3.60
2022-10-18T05:06:45.749Z,3.40
2022-10-18T05:09:32.847Z,3.30
2022-10-18T05:12:23.838Z,3.23
2022-10-18T05:15:00.033Z,3.17
2022-10-18T05:17:48.491Z,3.13
2022-10-18T05:20:16.542Z,3.20
2022-10-18T05:22:45.499Z,2.60
2022-10-18T05:25:13.139Z,2.97
2022-10-18T05:27:40.786Z,2.77
2022-10-18T05:30:09.335Z,3.43
2022-10-18T05:32:36.953Z,3.00
2022-10-18T05:35:04.825Z,3.77
2022-10-18T05:37:32.450Z,3.40
2022-10-18T05:40:01.451Z,2.93
2022-10-18T05:42:29.188Z,3.40
2022-10-18T05:44:56.978Z,3.10
2022-10-18T05:47:24.601Z,2.83
2022-10-18T05:49:52.226Z,2.67
2022-10-18T05:52:20.096Z,2.90
2022-10-18T05:54:47.688Z,2.93
2022-10-18T05:57:16.682Z,2.87
2022-10-18T05:59:45.120Z,2.63
2022-10-18T06:02:13.122Z,3.60
2022-10-18T06:04:40.784Z,3.03
2022-10-18T06:07:09.802Z,2.93
2022-10-18T06:09:38.869Z,3.10
2022-10-18T06:12:08.940Z,3.50
2022-10-18T06:14:38.175Z,3.37
2022-10-18T06:17:05.754Z,3.07
2022-10-18T06:19:33.390Z,3.73
2022-10-18T06:22:00.976Z,3.70
2022-10-18T06:24:29.064Z,3.70
2022-10-18T06:26:56.765Z,3.30
2022-10-18T06:29:24.405Z,3.30
2022-10-18T06:31:53.664Z,3.60
2022-10-18T06:34:21.439Z,3.50
2022-10-18T06:36:49.001Z,3.90
2022-10-18T06:39:16.714Z,3.30
2022-10-18T06:41:44.315Z,3.40
2022-10-18T06:44:14.382Z,3.87
2022-10-18T06:46:42.318Z,3.70
2022-10-18T06:49:13.089Z,3.40
2022-10-18T06:51:43.302Z,3.97
2022-10-18T06:54:18.164Z,3.23
2022-10-18T06:56:46.799Z,3.23
2022-10-18T06:59:14.980Z,3.27
2022-10-18T07:01:43.509Z,2.97
2022-10-18T07:04:12.583Z,2.90
2022-10-18T07:06:40.152Z,3.10
2022-10-18T07:09:07.723Z,3.30
2022-10-18T07:11:35.326Z,3.27
2022-10-18T07:14:04.951Z,3.30
2022-10-18T07:16:34.130Z,3.43
2022-10-18T07:19:01.763Z,3.27
2022-10-18T07:21:31.411Z,3.03
2022-10-18T07:23:59.032Z,3.13
2022-10-18T07:26:29.125Z,3.43
2022-10-18T07:28:59.163Z,3.03
2022-10-18T07:31:27.111Z,3.10
2022-10-18T07:33:57.446Z,3.10
2022-10-18T07:36:25.618Z,3.37
2022-10-18T07:38:54.954Z,3.03
2022-10-18T07:41:23.197Z,2.93
2022-10-18T07:43:52.515Z,3.67
2022-10-18T07:46:21.227Z,3.63
2022-10-18T07:48:49.021Z,3.37
2022-10-18T07:51:16.774Z,3.47
2022-10-18T07:53:44.752Z,3.43
2022-10-18T07:56:16.852Z,3.37
2022-10-18T07:58:44.876Z,3.57
2022-10-18T08:01:13.470Z,4.10
2022-10-18T08:03:42.595Z,3.43
2022-10-18T08:06:12.000Z,3.40
2022-10-18T08:08:41.263Z,3.47
2022-10-18T08:11:11.364Z,4.83
2022-10-18T08:13:40.348Z,3.23
2022-10-18T08:16:10.567Z,2.90
2022-10-18T08:18:39.131Z,3.33
2022-10-18T08:21:09.614Z,3.77
2022-10-18T08:23:38.240Z,3.57
2022-10-18T08:26:07.668Z,3.10
2022-10-18T08:28:36.747Z,3.05
2022-10-18T08:31:07.546Z,3.37
2022-10-18T08:33:35.900Z,3.80
2022-10-18T08:36:06.002Z,2.93
2022-10-18T08:38:34.119Z,3.37
2022-10-18T08:41:07.913Z,3.10
2022-10-18T08:43:41.283Z,3.40
2022-10-18T08:46:13.546Z,3.13
2022-10-18T08:48:45.078Z,3.40
2022-10-18T08:51:19.667Z,3.47
2022-10-18T08:53:56.502Z,3.63
2022-10-18T08:56:24.848Z,3.45
2022-10-18T08:58:52.596Z,3.47
2022-10-18T09:01:40.792Z,3.30
2022-10-18T09:04:28.155Z,3.50
2022-10-18T09:07:12.910Z,3.17
2022-10-18T09:09:47.447Z,3.38
2022-10-18T09:12:34.330Z,3.30
2022-10-18T09:15:13.835Z,3.35
2022-10-18T09:17:57.313Z,3.13
2022-10-18T09:20:26.579Z,3.55
2022-10-18T09:22:56.859Z,3.60
2022-10-18T09:25:26.706Z,3.38
2022-10-18T09:27:57.730Z,3.35
2022-10-18T09:30:42.597Z,3.13
2022-10-18T09:33:27.707Z,4.10
2022-10-18T09:35:58.357Z,3.88
2022-10-18T09:38:30.826Z,3.20
2022-10-18T09:41:03.307Z,3.30
2022-10-18T09:43:43.327Z,3.20
2022-10-18T09:46:11.582Z,3.25
2022-10-18T09:48:46.373Z,3.72
2022-10-18T09:51:21.710Z,3.15
2022-10-18T09:54:03.229Z,3.05
2022-10-18T09:56:39.323Z,2.95
2022-10-18T09:59:30.609Z,3.03
2022-10-18T10:01:58.177Z,3.10
2022-10-18T10:04:27.233Z,3.60
2022-10-18T10:06:57.303Z,3.33
2022-10-18T10:09:29.363Z,2.95
2022-10-18T10:11:57.708Z,3.05
2022-10-18T10:14:27.722Z,3.25
2022-10-18T10:16:57.694Z,3.38
2022-10-18T10:19:33.187Z,3.40
2022-10-18T10:22:05.709Z,3.20
2022-10-18T10:24:46.264Z,3.00
2022-10-18T10:27:21.131Z,3.17
2022-10-18T10:30:02.767Z,3.30
2022-10-18T10:32:47.717Z,3.40
2022-10-18T10:35:52.676Z,3.25
2022-10-18T10:38:25.883Z,3.15
2022-10-18T10:40:54.273Z,3.65
2022-10-18T10:43:37.079Z,3.13
2022-10-18T10:46:08.839Z,4.07
2022-10-18T10:48:46.809Z,3.25
2022-10-18T10:51:17.929Z,2.95
2022-10-18T10:53:52.083Z,3.13
2022-10-18T10:56:25.083Z,2.90
2022-10-18T10:58:54.860Z,3.45
2022-10-18T11:01:28.615Z,2.85
2022-10-18T11:03:58.818Z,3.28
2022-10-18T11:06:35.413Z,3.17
2022-10-18T11:09:06.367Z,4.10
2022-10-18T11:11:40.239Z,3.17
2022-10-18T11:14:25.886Z,3.22
2022-10-18T11:17:04.197Z,2.97
2022-10-18T11:19:40.979Z,3.20
2022-10-18T11:22:16.069Z,2.80
2022-10-18T11:24:44.228Z,3.10
2022-10-18T11:27:16.182Z,3.60
2022-10-18T11:29:55.567Z,3.30
2022-10-18T11:32:32.003Z,3.20
2022-10-18T11:35:13.602Z,3.30
2022-10-18T11:37:58.565Z,3.22
2022-10-18T11:40:42.344Z,3.30
2022-10-18T11:43:17.812Z,3.35
2022-10-18T11:45:55.736Z,2.90
2022-10-18T11:48:41.583Z,3.15
2022-10-18T11:51:16.263Z,3.67
2022-10-18T11:53:56.507Z,3.53
2022-10-18T11:56:33.652Z,3.25
2022-10-18T11:59:15.866Z,3.22
2022-10-18T12:01:54.983Z,2.95
2022-10-18T12:04:25.644Z,2.88
2022-10-18T12:06:57.564Z,3.08
2022-10-18T12:09:30.774Z,2.85
2022-10-18T12:12:03.022Z,3.45
2022-10-18T12:14:33.806Z,3.55
2022-10-18T12:17:39.905Z,3.28
2022-10-18T12:19:56.512Z,3.22
2022-10-18T12:22:29.743Z,3.53
2022-10-18T12:24:58.831Z,3.17
2022-10-18T12:27:35.540Z,3.22
2022-10-18T12:30:14.805Z,3.33
2022-10-18T12:32:56.445Z,2.50
2022-10-18T12:35:35.601Z,3.28
2022-10-18T12:38:22.216Z,2.97
2022-10-18T12:40:53.546Z,3.25
2022-10-18T12:43:25.603Z,2.78
2022-10-18T12:45:55.939Z,2.70
2022-10-18T12:48:31.365Z,2.70
2022-10-18T12:51:01.607Z,2.80
2022-10-18T12:53:30.137Z,3.10
2022-10-18T12:56:37.561Z,2.75
2022-10-18T12:59:51.078Z,2.75
2022-10-18T13:02:36.738Z,3.00
2022-10-18T13:05:56.274Z,2.83
2022-10-18T13:08:39.337Z,2.50
2022-10-18T13:11:35.712Z,2.58
2022-10-18T13:14:20.223Z,2.50
2022-10-18T13:16:54.113Z,3.08
2022-10-18T13:19:28.369Z,3.13
2022-10-18T13:22:12.064Z,2.90
2022-10-18T13:24:45.225Z,2.72
2022-10-18T13:27:37.001Z,2.70
2022-10-18T13:30:39.655Z,2.83
2022-10-18T13:33:25.026Z,2.78
2022-10-18T13:35:56.107Z,3.15
2022-10-18T13:38:43.349Z,3.20
2022-10-18T13:41:13.858Z,3.67
2022-10-18T13:44:11.258Z,2.80
2022-10-18T13:47:18.463Z,3.05
2022-10-18T13:50:19.011Z,3.13
2022-10-18T13:53:06.238Z,2.67
2022-10-18T13:55:46.542Z,2.90
2022-10-18T13:58:22.404Z,3.20
2022-10-18T14:01:05.794Z,3.03
2022-10-18T14:03:57.679Z,2.90
2022-10-18T14:06:29.885Z,3.00
2022-10-18T14:09:09.497Z,3.33
2022-10-18T14:11:50.638Z,3.30
2022-10-18T14:14:26.259Z,2.60
2022-10-18T14:17:00.166Z,2.70
2022-10-18T14:19:34.754Z,3.10
2022-10-18T14:22:12.103Z,3.05
2022-10-18T14:24:44.668Z,2.80
2022-10-18T14:27:17.429Z,3.00
2022-10-18T14:29:45.445Z,3.00
2022-10-18T14:32:25.359Z,3.17
2022-10-18T14:34:55.746Z,3.05
2022-10-18T14:37:32.845Z,2.92
2022-10-18T14:40:00.788Z,3.20
2022-10-18T14:42:29.203Z,3.63
2022-10-18T14:44:57.165Z,3.10
2022-10-18T14:47:28.149Z,3.40
2022-10-18T14:49:57.745Z,2.78
2022-10-18T14:52:32.886Z,2.92
2022-10-18T14:55:03.418Z,2.67
2022-10-18T14:57:34.353Z,2.65
2022-10-18T15:00:04.624Z,3.00
2022-10-18T15:02:37.087Z,3.05
2022-10-18T15:05:09.742Z,2.92
2022-10-18T15:07:37.830Z,3.05
2022-10-18T15:10:07.172Z,3.08
2022-10-18T15:12:41.194Z,2.67
2022-10-18T15:15:27.645Z,3.00
2022-10-18T15:17:57.848Z,3.05
2022-10-18T15:20:28.431Z,2.72
2022-10-18T15:23:23.274Z,2.58
2022-10-18T15:25:51.966Z,3.00
2022-10-18T15:28:30.361Z,2.83
2022-10-18T15:30:58.754Z,3.05
2022-10-18T15:33:33.605Z,2.90
2022-10-18T15:36:11.007Z,3.03
2022-10-18T15:38:38.696Z,3.00
2022-10-18T15:41:40.500Z,3.47
2022-10-18T15:44:13.247Z,3.00
2022-10-18T15:46:41.877Z,2.80
2022-10-18T15:49:56.401Z,2.90
2022-10-18T15:52:41.072Z,3.17
2022-10-18T15:55:56.332Z,3.00
2022-10-18T15:58:26.461Z,2.95
2022-10-18T16:00:57.162Z,2.85
2022-10-18T16:03:25.675Z,3.00
2022-10-18T16:05:58.815Z,2.72
2022-10-18T16:08:30.442Z,3.60
2022-10-18T16:10:58.709Z,3.10
2022-10-18T16:13:26.851Z,3.05
2022-10-18T16:15:56.025Z,3.00
2022-10-18T16:18:25.009Z,3.00
2022-10-18T16:20:53.104Z,3.20
2022-10-18T16:23:22.589Z,3.85
2022-10-18T16:25:52.320Z,3.72
2022-10-18T16:28:21.782Z,4.03
2022-10-18T16:30:55.041Z,3.22
2022-10-18T16:33:22.648Z,3.80
2022-10-18T16:35:50.502Z,3.95
2022-10-18T16:38:32.775Z,4.20
2022-10-18T16:41:06.687Z,4.30
2022-10-18T16:43:35.376Z,4.32
2022-10-18T16:46:04.148Z,3.53
2022-10-18T16:48:32.089Z,4.40
2022-10-18T16:51:00.346Z,4.93
2022-10-18T16:53:28.101Z,4.47
2022-10-18T16:55:58.419Z,4.80
2022-10-18T16:58:28.872Z,4.93
2022-10-18T17:00:56.966Z,5.00
2022-10-18T17:03:25.051Z,4.32
2022-10-18T17:05:53.024Z,4.00
2022-10-18T17:08:23.432Z,4.50
2022-10-18T17:10:53.487Z,4.47
2022-10-18T17:13:21.370Z,4.05
2022-10-18T17:15:51.181Z,4.35
2022-10-18T17:18:21.733Z,4.18
2022-10-18T17:20:49.747Z,4.05
2022-10-18T17:23:17.733Z,4.13
2022-10-18T17:25:58.989Z,4.28
2022-10-18T17:28:34.992Z,4.20
2022-10-18T17:31:06.955Z,4.40
2022-10-18T17:33:34.825Z,4.60
2022-10-18T17:36:02.578Z,3.85
2022-10-18T17:38:30.138Z,4.40
2022-10-18T17:40:57.722Z,5.03
2022-10-18T17:43:25.767Z,4.68
2022-10-18T17:45:56.534Z,4.70
2022-10-18T17:48:25.587Z,4.88
2022-10-18T17:50:53.247Z,4.80
2022-10-18T17:53:22.928Z,4.85
2022-10-18T17:55:50.650Z,4.63
2022-10-18T17:58:18.220Z,4.55
2022-10-18T18:00:45.832Z,4.85
2022-10-18T18:03:13.532Z,4.60
2022-10-18T18:05:42.567Z,5.75
2022-10-18T18:08:10.549Z,4.90
2022-10-18T18:10:38.619Z,4.80
2022-10-18T18:13:06.237Z,4.85
2022-10-18T18:15:33.891Z,5.30
2022-10-18T18:18:01.480Z,5.07
2022-10-18T18:20:29.151Z,5.50
2022-10-18T18:22:58.094Z,4.72
2022-10-18T18:25:25.738Z,4.50
2022-10-18T18:27:54.919Z,5.60
2022-10-18T18:30:23.084Z,6.30
2022-10-18T18:32:50.683Z,4.82
2022-10-18T18:35:18.490Z,4.22
2022-10-18T18:37:50.247Z,4.75
2022-10-18T18:40:19.416Z,5.05
2022-10-18T18:43:01.601Z,5.13
2022-10-18T18:45:34.606Z,4.88
2022-10-18T18:48:02.186Z,4.47
2022-10-18T18:50:31.794Z,4.90
2022-10-18T18:52:59.651Z,5.40
2022-10-18T18:55:28.616Z,5.25
2022-10-18T18:57:56.224Z,5.13
2022-10-18T19:00:23.841Z,5.03
2022-10-18T19:02:51.401Z,5.00
2022-10-18T19:05:19.738Z,4.63
2022-10-18T19:07:47.438Z,5.38
2022-10-18T19:10:15.182Z,4.78
2022-10-18T19:12:44.272Z,4.55
2022-10-18T19:15:12.001Z,5.35
2022-10-18T19:17:39.603Z,5.10
2022-10-18T19:20:07.552Z,4.50
2022-10-18T19:22:35.190Z,5.25
2022-10-18T19:25:02.810Z,5.35
2022-10-18T19:27:30.587Z,5.30
2022-10-18T19:29:59.914Z,4.75
2022-10-18T19:34:56.002Z,5.25
2022-10-18T19:37:23.747Z,5.70
2022-10-18T19:39:51.445Z,5.32
2022-10-18T19:42:25.073Z,5.43
2022-10-18T19:44:53.982Z,5.78
2022-10-18T19:47:22.912Z,5.53
2022-10-18T19:49:51.824Z,5.93
2022-10-18T19:52:19.461Z,5.43
2022-10-18T19:54:49.679Z,5.72
2022-10-18T19:57:17.258Z,5.50
2022-10-18T19:59:44.910Z,5.28
2022-10-18T20:02:15.187Z,5.40
2022-10-18T20:04:44.250Z,6.28
2022-10-18T20:07:11.890Z,5.70
2022-10-18T20:09:39.872Z,5.97
2022-10-18T20:12:07.462Z,6.20
2022-10-18T20:14:35.115Z,6.53
2022-10-18T20:17:02.731Z,6.63
2022-10-18T20:19:30.288Z,5.57
2022-10-18T20:21:59.308Z,5.93
2022-10-18T20:24:26.999Z,6.20
2022-10-18T20:26:54.588Z,5.72
2022-10-18T20:29:25.139Z,5.80
2022-10-18T20:31:56.582Z,5.72
2022-10-18T20:34:25.979Z,6.45
2022-10-18T20:36:55.639Z,5.78
2022-10-18T20:39:24.867Z,5.20
2022-10-18T20:41:52.603Z,5.70
2022-10-18T20:44:22.427Z,5.57
2022-10-18T20:46:50.060Z,5.47
2022-10-18T20:49:17.993Z,5.50
2022-10-18T20:51:46.149Z,6.18
2022-10-18T20:54:14.801Z,5.10
2022-10-18T20:56:43.876Z,5.40
2022-10-18T20:59:12.169Z,5.97
2022-10-18T21:01:40.757Z,5.10
2022-10-18T21:04:10.749Z,6.53
2022-10-18T21:06:41.303Z,5.20
2022-10-18T21:09:11.178Z,5.43
2022-10-18T21:11:44.257Z,5.78
2022-10-18T21:14:15.778Z,5.95
2022-10-18T21:16:44.925Z,5.85
2022-10-18T21:19:14.434Z,5.65
2022-10-18T21:21:43.887Z,5.38
2022-10-18T21:24:11.884Z,6.38
2022-10-18T21:26:39.998Z,7.22
2022-10-18T21:29:07.998Z,5.72
2022-10-18T21:31:39.052Z,5.90
2022-10-18T21:34:09.895Z,5.38
2022-10-18T21:36:38.612Z,5.43
2022-10-18T21:39:09.266Z,5.80
2022-10-18T21:41:37.793Z,5.47
2022-10-18T21:44:09.852Z,6.28
2022-10-18T21:46:40.719Z,5.47
2022-10-18T21:49:08.626Z,5.85
2022-10-18T21:51:36.533Z,5.47
2022-10-18T21:54:05.671Z,5.50
2022-10-18T21:56:34.830Z,5.88
2022-10-18T21:59:03.543Z,5.28
2022-10-18T22:01:33.158Z,5.93
2022-10-18T22:04:03.458Z,5.95
2022-10-18T22:09:08.830Z,5.75
2022-10-18T22:11:39.256Z,5.30
2022-10-18T22:14:07.000Z,5.68
2022-10-18T22:16:34.819Z,5.53
2022-10-18T22:19:05.964Z,4.80
2022-10-18T22:21:34.395Z,5.40
2022-10-18T22:24:06.042Z,5.55
2022-10-18T22:26:36.133Z,5.68
2022-10-18T22:29:06.705Z,5.95
2022-10-18T22:31:35.888Z,5.68
2022-10-18T22:34:07.318Z,5.90
2022-10-18T22:36:35.709Z,6.30
2022-10-18T22:39:05.451Z,6.53
2022-10-18T22:41:34.163Z,5.68
2022-10-18T22:44:03.778Z,6.28
2022-10-18T22:46:32.742Z,5.70
2022-10-18T22:49:04.125Z,5.38
2022-10-18T22:51:31.844Z,5.60
2022-10-18T22:54:01.003Z,5.65
2022-10-18T22:56:28.599Z,6.00
2022-10-18T22:59:02.804Z,5.40
2022-10-18T23:01:33.855Z,6.18
2022-10-18T23:04:03.419Z,6.50
2022-10-18T23:06:34.310Z,5.63
2022-10-18T23:09:04.836Z,5.00
2022-10-18T23:11:38.066Z,5.22
2022-10-18T23:14:07.671Z,6.00
2022-10-18T23:16:37.205Z,6.15
2022-10-18T23:19:04.900Z,5.55
2022-10-18T23:21:34.888Z,6.05
2022-10-18T23:24:02.536Z,6.28
2022-10-18T23:26:32.401Z,6.40
2022-10-18T23:29:00.623Z,7.40
2022-10-18T23:31:30.657Z,5.82
2022-10-18T23:33:59.789Z,6.60
2022-10-18T23:36:27.683Z,6.03
2022-10-18T23:38:57.240Z,6.07
2022-10-18T23:41:25.668Z,6.57
2022-10-18T23:43:53.826Z,5.75
2022-10-18T23:46:21.739Z,5.88
2022-10-18T23:48:51.711Z,6.63
2022-10-18T23:51:19.408Z,6.63
2022-10-18T23:53:47.209Z,6.47
2022-10-18T23:56:17.224Z,6.43
2022-10-18T23:58:45.978Z,6.07
